createdAt,value
2022-08-27T00:02:04.878Z,80.45
2022-08-27T00:04:32.479Z,80.09
2022-08-27T00:06:59.123Z,80.16
2022-08-27T00:09:27.112Z,80.22
2022-08-27T00:11:54.541Z,80.94
2022-08-27T00:14:21.753Z,80.42
2022-08-27T00:16:48.849Z,80.84
2022-08-27T00:19:15.339Z,80.85
2022-08-27T00:21:41.863Z,81.03
2022-08-27T00:24:08.980Z,80.78
2022-08-27T00:26:40.141Z,81.68
2022-08-27T00:29:09.529Z,81.25
2022-08-27T00:31:36.754Z,81.35
2022-08-27T00:34:03.507Z,81.02
2022-08-27T00:36:31.227Z,81.34
2022-08-27T00:38:57.685Z,81.54
2022-08-27T00:41:24.369Z,82.27
2022-08-27T00:43:59.654Z,81.95
2022-08-27T00:46:43.697Z,81.74
2022-08-27T00:49:18.965Z,81.78
2022-08-27T00:52:02.972Z,81.98
2022-08-27T00:54:29.822Z,81.33
2022-08-27T00:56:58.410Z,81.04
2022-08-27T00:59:29.296Z,81.54
2022-08-27T01:02:14.786Z,81.71
2022-08-27T01:04:44.555Z,81.59
2022-08-27T01:07:11.692Z,81.88
2022-08-27T01:09:39.321Z,82.28
2022-08-27T01:12:11.818Z,81.47
2022-08-27T01:14:39.886Z,82.20
2022-08-27T01:17:09.229Z,81.93
2022-08-27T01:19:50.406Z,82.19
2022-08-27T01:22:57.258Z,81.19
2022-08-27T01:25:25.435Z,80.91
2022-08-27T01:27:55.830Z,81.33
2022-08-27T01:30:23.887Z,81.32
2022-08-27T01:32:51.077Z,81.73
2022-08-27T01:35:18.061Z,81.33
2022-08-27T01:37:49.356Z,80.80
2022-08-27T01:40:20.373Z,80.89
2022-08-27T01:42:50.124Z,80.28
2022-08-27T01:45:33.188Z,80.07
2022-08-27T01:48:00.870Z,79.98
2022-08-27T01:50:31.832Z,80.22
2022-08-27T01:53:03.172Z,80.09
2022-08-27T01:55:29.817Z,79.71
2022-08-27T01:57:56.668Z,79.28
2022-08-27T02:00:28.238Z,79.70
2022-08-27T02:02:56.526Z,79.31
2022-08-27T02:05:48.766Z,79.55
2022-08-27T02:08:17.104Z,79.43
2022-08-27T02:10:46.404Z,79.83
2022-08-27T02:13:13.465Z,79.78
2022-08-27T02:15:41.889Z,79.27
2022-08-27T02:18:12.003Z,79.20
2022-08-27T02:20:39.495Z,79.38
2022-08-27T02:23:06.700Z,80.09
2022-08-27T02:25:33.535Z,80.11
2022-08-27T02:28:02.012Z,79.57
2022-08-27T02:30:32.165Z,79.81
2022-08-27T02:33:02.718Z,79.33
2022-08-27T02:35:34.327Z,79.79
2022-08-27T02:38:02.021Z,79.13
2022-08-27T02:40:29.490Z,79.81
2022-08-27T02:42:56.030Z,79.20
2022-08-27T02:45:23.013Z,78.73
2022-08-27T02:47:49.736Z,79.32
2022-08-27T02:50:17.573Z,79.63
2022-08-27T02:52:46.406Z,79.17
2022-08-27T02:55:14.440Z,78.87
2022-08-27T02:57:43.997Z,78.44
2022-08-27T03:00:13.738Z,79.25
2022-08-27T03:02:40.441Z,78.79
2022-08-27T03:05:10.973Z,78.92
2022-08-27T03:07:38.349Z,78.68
2022-08-27T03:10:06.801Z,78.46
2022-08-27T03:12:37.430Z,77.96
2022-08-27T03:15:07.658Z,78.54
2022-08-27T03:17:53.317Z,78.14
2022-08-27T03:20:21.626Z,77.79
2022-08-27T03:22:48.347Z,77.92
2022-08-27T03:25:15.305Z,78.31
2022-08-27T03:27:42.290Z,78.53
2022-08-27T03:30:16.934Z,77.82
2022-08-27T03:32:43.834Z,77.32
2022-08-27T03:35:11.993Z,78.04
2022-08-27T03:37:39.379Z,78.53
2022-08-27T03:40:08.360Z,78.25
2022-08-27T03:42:36.865Z,78.26
2022-08-27T03:45:04.763Z,77.83
2022-08-27T03:47:32.350Z,78.19
2022-08-27T03:50:00.606Z,77.96
2022-08-27T03:52:28.265Z,78.21
2022-08-27T03:54:54.971Z,78.29
2022-08-27T03:57:25.605Z,78.79
2022-08-27T03:59:54.371Z,77.84
2022-08-27T04:02:22.041Z,78.59
2022-08-27T04:04:48.744Z,78.34
2022-08-27T04:07:15.305Z,78.58
2022-08-27T04:09:42.430Z,78.21
2022-08-27T04:12:12.167Z,79.03
2022-08-27T04:14:39.447Z,78.32
2022-08-27T04:17:06.678Z,79.05
2022-08-27T04:19:38.436Z,78.98
2022-08-27T04:22:07.927Z,78.18
2022-08-27T04:24:37.798Z,78.95
2022-08-27T04:27:06.974Z,79.10
2022-08-27T04:29:34.804Z,78.78
2022-08-27T04:32:04.945Z,78.91
2022-08-27T04:34:33.030Z,78.95
2022-08-27T04:37:00.108Z,79.14
2022-08-27T04:39:29.415Z,78.53
2022-08-27T04:41:59.396Z,78.69
2022-08-27T04:44:28.618Z,78.68
2022-08-27T04:46:57.946Z,78.76
2022-08-27T04:49:25.336Z,79.45
2022-08-27T04:51:51.864Z,78.70
2022-08-27T04:54:26.003Z,79.10
2022-08-27T04:56:59.057Z,79.23
2022-08-27T04:59:25.587Z,78.79
2022-08-27T05:01:52.068Z,79.22
2022-08-27T05:04:19.023Z,79.94
2022-08-27T05:06:46.799Z,80.16
2022-08-27T05:09:15.227Z,80.21
2022-08-27T05:11:43.376Z,79.76
2022-08-27T05:14:14.361Z,79.93
2022-08-27T05:16:41.190Z,79.06
2022-08-27T05:19:10.989Z,79.91
2022-08-27T05:21:45.712Z,80.20
2022-08-27T05:24:12.443Z,80.19
2022-08-27T05:26:39.405Z,80.55
2022-08-27T05:29:06.847Z,80.02
2022-08-27T05:31:35.079Z,79.73
2022-08-27T05:34:10.612Z,79.56
2022-08-27T05:36:47.978Z,79.41
2022-08-27T05:39:16.366Z,79.78
2022-08-27T05:41:43.078Z,79.83
2022-08-27T05:44:39.001Z,79.95
2022-08-27T05:46:57.515Z,80.04
2022-08-27T05:49:24.427Z,79.66
2022-08-27T05:51:50.966Z,79.54
2022-08-27T05:54:20.246Z,79.74
2022-08-27T05:56:49.412Z,79.23
2022-08-27T05:59:35.028Z,79.62
2022-08-27T06:02:02.439Z,79.98
2022-08-27T06:04:28.910Z,79.83
2022-08-27T06:06:55.445Z,79.59
2022-08-27T06:09:31.057Z,79.96
2022-08-27T06:12:00.017Z,79.40
2022-08-27T06:14:27.205Z,79.58
2022-08-27T06:16:53.738Z,79.73
2022-08-27T06:19:20.665Z,78.68
2022-08-27T06:22:01.189Z,79.75
2022-08-27T06:24:34.924Z,79.32
2022-08-27T06:27:01.497Z,79.45
2022-08-27T06:29:28.266Z,78.97
2022-08-27T06:31:56.287Z,78.47
2022-08-27T06:34:23.183Z,78.46
2022-08-27T06:36:49.805Z,78.87
2022-08-27T06:39:17.073Z,78.50
2022-08-27T06:41:44.680Z,78.87
2022-08-27T06:44:12.663Z,78.37
2022-08-27T06:46:40.115Z,78.56
2022-08-27T06:49:07.208Z,79.00
2022-08-27T06:51:36.212Z,78.14
2022-08-27T06:54:06.915Z,78.02
2022-08-27T06:56:33.958Z,78.29
2022-08-27T06:59:03.886Z,78.04
2022-08-27T07:01:37.038Z,78.00
2022-08-27T07:04:08.036Z,77.34
2022-08-27T07:06:37.850Z,77.72
2022-08-27T07:09:07.134Z,78.41
2022-08-27T07:11:33.698Z,77.49
2022-08-27T07:14:02.081Z,77.41
2022-08-27T07:16:30.698Z,77.64
2022-08-27T07:19:01.821Z,77.83
2022-08-27T07:21:32.789Z,78.53
2022-08-27T07:24:05.305Z,77.90
2022-08-27T07:26:36.332Z,78.04
2022-08-27T07:29:12.257Z,78.32
2022-08-27T07:31:40.026Z,78.68
2022-08-27T07:34:10.173Z,78.16
2022-08-27T07:36:38.697Z,77.99
2022-08-27T07:39:07.065Z,77.73
2022-08-27T07:41:58.281Z,77.50
2022-08-27T07:44:28.148Z,77.35
2022-08-27T07:47:02.089Z,77.24
2022-08-27T07:49:29.581Z,77.72
2022-08-27T07:51:56.175Z,77.78
2022-08-27T07:54:25.613Z,77.72
2022-08-27T07:56:55.252Z,77.90
2022-08-27T07:59:27.118Z,77.37
2022-08-27T08:01:55.885Z,77.32
2022-08-27T08:04:25.092Z,77.14
2022-08-27T08:06:52.007Z,77.00
2022-08-27T08:09:20.229Z,76.51
2022-08-27T08:11:47.424Z,76.44
2022-08-27T08:14:14.120Z,76.59
2022-08-27T08:16:44.014Z,77.06
2022-08-27T08:19:11.300Z,76.61
2022-08-27T08:21:38.785Z,76.33
2022-08-27T08:24:06.948Z,76.53
2022-08-27T08:26:33.898Z,76.17
2022-08-27T08:29:04.986Z,76.03
2022-08-27T08:31:32.681Z,76.42
2022-08-27T08:33:59.156Z,76.18
2022-08-27T08:36:25.684Z,76.07
2022-08-27T08:38:53.353Z,75.02
2022-08-27T08:41:33.768Z,75.17
2022-08-27T08:44:13.303Z,74.44
2022-08-27T08:46:48.573Z,74.47
2022-08-27T08:49:33.626Z,74.41
2022-08-27T08:52:31.674Z,74.64
2022-08-27T08:55:36.962Z,74.23
2022-08-27T08:58:13.034Z,74.66
2022-08-27T09:00:43.794Z,74.46
2022-08-27T09:03:15.619Z,73.69
2022-08-27T09:05:48.022Z,72.52
2022-08-27T09:08:53.117Z,72.57
2022-08-27T09:11:44.374Z,72.61
2022-08-27T09:14:22.017Z,71.59
2022-08-27T09:16:56.443Z,71.60
2022-08-27T09:19:24.675Z,72.29
2022-08-27T09:22:03.312Z,71.93
2022-08-27T09:24:59.298Z,72.31
2022-08-27T09:27:25.955Z,71.70
2022-08-27T09:29:56.005Z,72.12
2022-08-27T09:32:28.596Z,71.83
2022-08-27T09:35:00.988Z,71.40
2022-08-27T09:37:34.662Z,71.26
2022-08-27T09:40:22.601Z,70.71
2022-08-27T09:42:53.314Z,71.14
2022-08-27T09:45:27.555Z,70.24
2022-08-27T09:48:16.077Z,70.28
2022-08-27T09:50:49.360Z,70.23
2022-08-27T09:53:21.963Z,69.56
2022-08-27T09:55:53.530Z,69.94
2022-08-27T09:58:25.947Z,70.29
2022-08-27T10:01:22.283Z,69.61
2022-08-27T10:03:49.684Z,68.80
2022-08-27T10:06:46.076Z,68.26
2022-08-27T10:09:47.095Z,67.75
2022-08-27T10:12:51.875Z,68.41
2022-08-27T10:15:18.619Z,67.80
2022-08-27T10:18:08.194Z,66.12
2022-08-27T10:20:48.186Z,65.49
2022-08-27T10:23:21.886Z,64.64
2022-08-27T10:26:00.987Z,64.53
2022-08-27T10:28:34.680Z,64.41
2022-08-27T10:31:26.157Z,64.39
2022-08-27T10:34:07.106Z,63.53
2022-08-27T10:36:42.325Z,62.88
2022-08-27T10:39:44.193Z,60.88
2022-08-27T10:42:22.102Z,59.81
2022-08-27T10:45:31.439Z,59.33
2022-08-27T10:48:05.909Z,59.98
2022-08-27T10:50:55.654Z,59.20
2022-08-27T10:53:30.278Z,58.93
2022-08-27T10:56:19.306Z,58.50
2022-08-27T10:59:02.794Z,59.77
2022-08-27T11:01:58.199Z,59.00
2022-08-27T11:04:31.382Z,58.00
2022-08-27T11:07:07.191Z,58.32
2022-08-27T11:09:46.381Z,58.72
2022-08-27T11:12:18.304Z,59.07
2022-08-27T11:14:58.333Z,58.62
2022-08-27T11:17:37.251Z,58.23
2022-08-27T11:20:25.893Z,58.03
2022-08-27T11:23:12.417Z,57.78
2022-08-27T11:25:53.820Z,57.32
2022-08-27T11:28:29.942Z,56.86
2022-08-27T11:30:59.581Z,56.77
2022-08-27T11:33:37.161Z,56.33
2022-08-27T11:36:07.183Z,56.29
2022-08-27T11:38:58.731Z,57.18
2022-08-27T11:41:45.256Z,57.85
2022-08-27T11:44:14.872Z,57.23
2022-08-27T11:46:48.513Z,57.68
2022-08-27T11:49:41.426Z,57.62
2022-08-27T11:52:09.845Z,57.37
2022-08-27T11:54:46.536Z,57.06
2022-08-27T11:57:29.200Z,57.79
2022-08-27T11:59:55.942Z,58.06
2022-08-27T12:03:17.129Z,57.46
2022-08-27T12:05:54.419Z,58.37
2022-08-27T12:08:22.058Z,58.26
2022-08-27T12:11:07.417Z,58.48
2022-08-27T12:14:13.080Z,58.25
2022-08-27T12:16:48.579Z,58.90
2022-08-27T12:19:44.641Z,58.49
2022-08-27T12:22:54.522Z,58.95
2022-08-27T12:25:23.226Z,59.03
2022-08-27T12:27:59.624Z,59.71
2022-08-27T12:30:38.803Z,59.69
2022-08-27T12:33:14.378Z,59.58
2022-08-27T12:35:47.834Z,59.28
2022-08-27T12:38:39.382Z,59.48
2022-08-27T12:41:09.236Z,59.73
2022-08-27T12:43:41.433Z,59.90
2022-08-27T12:46:16.028Z,59.96
2022-08-27T12:48:47.809Z,60.05
2022-08-27T12:51:27.594Z,59.67
2022-08-27T12:54:13.541Z,59.40
2022-08-27T12:56:55.385Z,59.59
2022-08-27T12:59:49.715Z,59.93
2022-08-27T13:02:40.825Z,59.73
2022-08-27T13:05:10.758Z,59.65
2022-08-27T13:07:44.397Z,59.90
2022-08-27T13:10:19.126Z,60.14
2022-08-27T13:12:47.863Z,59.73
2022-08-27T13:15:16.854Z,60.03
2022-08-27T13:17:46.375Z,59.58
2022-08-27T13:20:52.637Z,60.19
2022-08-27T13:23:24.256Z,60.64
2022-08-27T13:26:11.722Z,60.00
2022-08-27T13:28:41.507Z,59.53
2022-08-27T13:31:11.446Z,58.89
2022-08-27T13:33:41.481Z,58.97
2022-08-27T13:36:09.762Z,58.78
2022-08-27T13:38:41.651Z,58.64
2022-08-27T13:41:30.789Z,58.25
2022-08-27T13:44:05.224Z,58.28
2022-08-27T13:46:32.540Z,57.89
2022-08-27T13:49:00.313Z,58.29
2022-08-27T13:51:31.471Z,58.13
2022-08-27T13:54:13.205Z,57.40
2022-08-27T13:56:55.388Z,58.09
2022-08-27T13:59:26.505Z,57.16
2022-08-27T14:02:11.261Z,58.19
2022-08-27T14:04:51.686Z,57.40
2022-08-27T14:07:35.479Z,57.79
2022-08-27T14:10:27.495Z,57.90
2022-08-27T14:13:17.102Z,58.27
2022-08-27T14:15:46.451Z,57.73
2022-08-27T14:18:54.933Z,58.24
2022-08-27T14:21:16.651Z,58.43
2022-08-27T14:23:43.468Z,58.24
2022-08-27T14:26:10.484Z,58.22
2022-08-27T14:28:37.693Z,57.83
2022-08-27T14:31:05.491Z,57.89
2022-08-27T14:33:32.485Z,57.52
2022-08-27T14:35:59.710Z,57.30
2022-08-27T14:38:31.543Z,56.94
2022-08-27T14:40:58.500Z,57.10
2022-08-27T14:43:25.529Z,57.25
2022-08-27T14:45:53.545Z,57.47
2022-08-27T14:48:28.704Z,57.47
2022-08-27T14:50:56.277Z,57.59
2022-08-27T14:53:23.414Z,57.46
2022-08-27T14:55:51.934Z,57.56
2022-08-27T14:58:19.352Z,57.48
2022-08-27T15:00:46.332Z,57.58
2022-08-27T15:03:13.335Z,57.70
2022-08-27T15:05:40.265Z,58.05
2022-08-27T15:08:09.496Z,58.28
2022-08-27T15:10:40.222Z,57.90
2022-08-27T15:13:07.367Z,58.07
2022-08-27T15:15:34.080Z,57.97
2022-08-27T15:18:00.685Z,57.82
2022-08-27T15:20:27.152Z,57.52
2022-08-27T15:22:53.751Z,57.78
2022-08-27T15:25:21.166Z,58.24
2022-08-27T15:27:48.114Z,58.00
2022-08-27T15:30:17.447Z,57.83
2022-08-27T15:32:47.364Z,57.32
2022-08-27T15:35:17.485Z,57.35
2022-08-27T15:37:44.617Z,56.78
2022-08-27T15:40:16.626Z,57.21
2022-08-27T15:42:43.581Z,57.31
2022-08-27T15:45:13.115Z,56.89
2022-08-27T15:47:40.132Z,56.35
2022-08-27T15:50:07.575Z,56.89
2022-08-27T15:52:40.293Z,56.37
2022-08-27T15:55:18.538Z,56.21
2022-08-27T15:57:45.118Z,55.26
2022-08-27T16:00:12.958Z,55.15
2022-08-27T16:02:41.641Z,55.68
2022-08-27T16:05:09.471Z,55.38
2022-08-27T16:07:36.415Z,55.36
2022-08-27T16:10:04.201Z,55.28
2022-08-27T16:12:30.698Z,55.54
2022-08-27T16:14:57.199Z,54.98
2022-08-27T16:17:24.636Z,55.25
2022-08-27T16:19:51.405Z,54.80
2022-08-27T16:22:18.119Z,55.56
2022-08-27T16:24:45.717Z,55.35
2022-08-27T16:27:12.703Z,55.08
2022-08-27T16:29:39.520Z,55.05
2022-08-27T16:32:11.686Z,55.20
2022-08-27T16:34:39.871Z,54.82
2022-08-27T16:37:07.710Z,55.56
2022-08-27T16:42:10.254Z,55.94
2022-08-27T16:44:38.681Z,55.38
2022-08-27T16:47:07.120Z,55.46
2022-08-27T16:49:52.775Z,55.06
2022-08-27T16:52:21.253Z,55.50
2022-08-27T16:54:47.750Z,55.17
2022-08-27T16:57:14.538Z,55.39
2022-08-27T16:59:41.078Z,55.55
2022-08-27T17:02:17.471Z,55.60
2022-08-27T17:04:49.276Z,55.73
2022-08-27T17:07:27.922Z,55.71
2022-08-27T17:09:54.665Z,55.96
2022-08-27T17:12:24.615Z,55.22
2022-08-27T17:14:51.166Z,56.11
2022-08-27T17:17:18.359Z,56.39
2022-08-27T17:19:45.517Z,55.71
2022-08-27T17:22:12.984Z,55.83
2022-08-27T17:24:40.247Z,55.66
2022-08-27T17:27:07.711Z,56.07
2022-08-27T17:29:34.253Z,55.56
2022-08-27T17:32:01.298Z,55.50
2022-08-27T17:34:28.661Z,55.42
2022-08-27T17:36:55.205Z,55.83
2022-08-27T17:39:22.205Z,55.48
2022-08-27T17:41:51.298Z,55.69
2022-08-27T17:44:23.454Z,55.41
2022-08-27T17:46:51.341Z,55.52
2022-08-27T17:49:18.431Z,55.37
2022-08-27T17:51:45.918Z,55.33
2022-08-27T17:54:36.782Z,55.21
2022-08-27T17:57:10.527Z,55.80
2022-08-27T17:59:37.151Z,56.15
2022-08-27T18:02:04.035Z,56.15
2022-08-27T18:04:30.589Z,55.65
2022-08-27T18:06:57.046Z,56.40
2022-08-27T18:09:23.655Z,56.12
2022-08-27T18:11:50.415Z,56.17
2022-08-27T18:14:18.484Z,55.67
2022-08-27T18:16:45.944Z,55.49
2022-08-27T18:19:13.010Z,55.76
2022-08-27T18:21:46.365Z,55.73
2022-08-27T18:24:13.580Z,55.99
2022-08-27T18:26:40.438Z,55.96
2022-08-27T18:29:14.537Z,56.12
2022-08-27T18:31:42.155Z,55.35
2022-08-27T18:34:09.315Z,56.40
2022-08-27T18:36:36.696Z,55.91
2022-08-27T18:39:03.242Z,55.75
2022-08-27T18:41:30.716Z,55.68
2022-08-27T18:43:58.322Z,56.02
2022-08-27T18:46:25.147Z,56.58
2022-08-27T18:48:51.841Z,56.62
2022-08-27T18:51:20.706Z,56.36
2022-08-27T18:53:48.198Z,56.59
2022-08-27T18:56:18.594Z,57.39
2022-08-27T18:58:46.069Z,57.01
2022-08-27T19:01:17.099Z,57.40
2022-08-27T19:03:47.744Z,57.45
2022-08-27T19:06:17.474Z,57.48
2022-08-27T19:08:45.313Z,57.75
2022-08-27T19:11:12.012Z,58.33
2022-08-27T19:13:39.562Z,58.06
2022-08-27T19:16:13.789Z,58.32
2022-08-27T19:18:41.973Z,58.36
2022-08-27T19:21:08.926Z,58.12
2022-08-27T19:23:37.168Z,58.45
2022-08-27T19:26:06.914Z,58.68
2022-08-27T19:28:41.987Z,59.07
2022-08-27T19:31:09.088Z,59.15
2022-08-27T19:33:38.909Z,59.24
2022-08-27T19:36:12.519Z,59.41
2022-08-27T19:38:42.126Z,59.33
2022-08-27T19:41:12.101Z,59.60
2022-08-27T19:43:39.683Z,59.46
2022-08-27T19:46:13.543Z,60.01
2022-08-27T19:48:40.571Z,60.55
2022-08-27T19:51:10.558Z,60.26
2022-08-27T19:53:46.027Z,60.59
2022-08-27T19:56:13.759Z,60.86
2022-08-27T19:58:44.546Z,61.05
2022-08-27T20:01:12.016Z,60.79
2022-08-27T20:03:38.831Z,61.22
2022-08-27T20:06:07.802Z,61.42
2022-08-27T20:08:34.399Z,60.92
2022-08-27T20:11:01.376Z,61.33
2022-08-27T20:13:32.367Z,61.29
2022-08-27T20:16:00.053Z,61.34
2022-08-27T20:18:26.642Z,61.88
2022-08-27T20:20:53.319Z,61.60
2022-08-27T20:23:25.255Z,62.22
2022-08-27T20:25:52.293Z,61.97
2022-08-27T20:28:38.893Z,62.12
2022-08-27T20:31:06.950Z,62.26
2022-08-27T20:33:34.090Z,62.69
2022-08-27T20:36:01.385Z,62.47
2022-08-27T20:38:27.975Z,62.69
2022-08-27T20:40:54.431Z,63.28
2022-08-27T20:43:22.431Z,63.37
2022-08-27T20:45:48.940Z,63.28
2022-08-27T20:48:16.941Z,63.43
2022-08-27T20:50:43.724Z,63.68
2022-08-27T20:53:10.779Z,63.77
2022-08-27T20:55:41.124Z,64.05
2022-08-27T20:58:26.673Z,63.97
2022-08-27T21:00:55.083Z,63.92
2022-08-27T21:03:23.592Z,64.18
2022-08-27T21:05:50.125Z,64.29
2022-08-27T21:08:19.470Z,64.32
2022-08-27T21:10:50.801Z,64.80
2022-08-27T21:13:18.614Z,65.37
2022-08-27T21:15:45.305Z,65.31
2022-08-27T21:18:13.139Z,65.12
2022-08-27T21:20:40.626Z,65.19
2022-08-27T21:23:08.777Z,65.73
2022-08-27T21:25:39.768Z,65.74
2022-08-27T21:28:07.974Z,64.90
2022-08-27T21:30:35.879Z,65.92
2022-08-27T21:33:05.915Z,66.09
2022-08-27T21:35:33.048Z,66.36
2022-08-27T21:38:00.663Z,66.52
2022-08-27T21:40:28.423Z,66.32
2022-08-27T21:42:56.350Z,65.94
2022-08-27T21:45:24.562Z,65.89
2022-08-27T21:47:51.851Z,66.70
2022-08-27T21:50:19.794Z,66.24
2022-08-27T21:52:47.722Z,66.79
2022-08-27T21:55:14.437Z,67.13
2022-08-27T21:57:40.953Z,67.02
2022-08-27T22:00:30.400Z,67.40
2022-08-27T22:02:57.036Z,67.58
2022-08-27T22:05:25.899Z,67.82
2022-08-27T22:07:52.386Z,67.98
2022-08-27T22:10:19.075Z,67.87
2022-08-27T22:12:45.633Z,67.68
2022-08-27T22:15:19.653Z,68.22
2022-08-27T22:17:51.447Z,68.23
2022-08-27T22:20:18.889Z,68.07
2022-08-27T22:22:45.438Z,68.97
2022-08-27T22:25:12.278Z,68.86
2022-08-27T22:27:39.627Z,69.23
2022-08-27T22:30:11.297Z,69.33
2022-08-27T22:32:39.907Z,69.63
2022-08-27T22:35:09.377Z,70.11
2022-08-27T22:37:38.041Z,69.99
2022-08-27T22:40:08.980Z,69.96
2022-08-27T22:42:47.374Z,70.10
2022-08-27T22:45:15.202Z,70.77
2022-08-27T22:47:43.309Z,70.84
2022-08-27T22:50:10.884Z,70.77
2022-08-27T22:52:42.199Z,71.19
2022-08-27T22:55:34.290Z,71.52
2022-08-27T22:58:02.130Z,72.29
2022-08-27T23:00:32.506Z,72.73
2022-08-27T23:02:59.953Z,73.05
2022-08-27T23:05:27.151Z,72.94
2022-08-27T23:07:54.683Z,73.20
2022-08-27T23:10:24.852Z,73.27
2022-08-27T23:12:53.625Z,73.59
2022-08-27T23:15:28.852Z,73.55
2022-08-27T23:17:56.674Z,73.50
2022-08-27T23:20:25.399Z,73.64
2022-08-27T23:22:52.943Z,73.83
2022-08-27T23:25:43.591Z,73.39
2022-08-27T23:28:14.425Z,73.40
2022-08-27T23:30:42.411Z,73.48
2022-08-27T23:33:09.691Z,73.19
2022-08-27T23:35:38.143Z,72.50
2022-08-27T23:38:04.954Z,72.80
2022-08-27T23:40:34.709Z,72.80
2022-08-27T23:43:03.663Z,72.47
2022-08-27T23:45:30.252Z,73.02
2022-08-27T23:47:56.791Z,73.58
2022-08-27T23:50:33.638Z,73.29
2022-08-27T23:53:03.578Z,73.23
2022-08-27T23:55:30.069Z,73.47
2022-08-27T23:57:57.754Z,74.23
